Time;durP1;ratioP1;P1;durP2;ratioP2;P2;SDS_P1;SDS_P2;PMS_P1;PMS_P2;Temp;Humidity;BMP_temperature;BMP_pressure;BME280_temperature;BME280_humidity;BME280_pressure;Samples;Min_cycle;Max_cycle;Signal;HPM_P1;HPM_P2
2022/02/07 05:03:51;;;;;;;1.72;0.80;;;;;;;1.88;87.08;98837.30;1665340;83;20163;-71
2022/02/07 05:14:18;;;;;;;7.42;3.58;;;;;;;1.65;87.04;98874.23;1739765;81;21062;-70
2022/02/07 05:16:44;;;;;;;7.53;3.80;;;;;;;1.63;87.04;98883.23;1719896;82;21114;-71
2022/02/07 05:19:10;;;;;;;9.48;2.52;;;;;;;1.61;87.06;98889.13;1724502;82;21055;-71
2022/02/07 05:21:36;;;;;;;3.90;2.15;;;;;;;1.60;87.04;98900.61;1749751;81;21035;-71
2022/02/07 05:24:02;;;;;;;4.87;1.45;;;;;;;1.58;87.04;98908.66;1749780;82;21058;-70
2022/02/07 05:26:28;;;;;;;5.53;2.30;;;;;;;1.57;87.04;98914.05;1749806;81;21095;-70
2022/02/07 05:28:58;;;;;;;4.17;1.85;;;;;;;1.55;87.04;98922.58;1749475;82;20992;-71
2022/02/07 05:31:22;;;;;;;2.90;1.20;;;;;;;1.54;87.05;98923.06;1693493;82;21042;-70
2022/02/07 05:33:48;;;;;;;3.58;1.60;;;;;;;1.55;87.05;98931.77;1719673;82;20995;-70
2022/02/07 05:36:14;;;;;;;8.70;3.50;;;;;;;1.56;87.07;98925.52;1747352;82;21047;-70
2022/02/07 05:38:45;;;;;;;14.87;5.50;;;;;;;1.56;87.06;98940.80;1745590;81;21126;-70
2022/02/07 05:41:09;;;;;;;2.42;1.42;;;;;;;1.58;87.10;98942.81;1719562;82;21426;-70
2022/02/07 05:43:37;;;;;;;5.62;2.40;;;;;;;1.58;87.11;98955.11;1720053;82;21003;-70
2022/02/07 05:46:04;;;;;;;8.73;3.52;;;;;;;1.58;87.08;98953.80;1719903;82;21546;-70
2022/02/07 05:48:30;;;;;;;4.67;1.72;;;;;;;1.58;87.09;98966.94;1719636;83;21051;-70
2022/02/07 05:50:56;;;;;;;4.00;2.08;;;;;;;1.59;87.12;98984.33;1719712;83;21131;-70
2022/02/07 05:53:22;;;;;;;2.58;1.62;;;;;;;1.60;87.13;98987.30;1721768;82;21499;-70
2022/02/07 05:55:48;;;;;;;4.53;1.22;;;;;;;1.60;87.13;98988.62;1720676;81;21047;-70
2022/02/07 05:58:14;;;;;;;4.37;1.77;;;;;;;1.60;87.13;99006.52;1740038;82;21073;-70
2022/02/07 06:00:40;;;;;;;87.53;27.15;;;;;;;1.60;87.15;99000.44;1728631;82;20880;-70
2022/02/07 06:03:06;;;;;;;34.35;9.90;;;;;;;1.60;87.16;99007.00;1712123;82;21165;-70
2022/02/07 06:05:32;;;;;;;11.33;3.35;;;;;;;1.59;87.16;99022.42;1721272;81;21110;-70
2022/02/07 06:07:58;;;;;;;23.85;6.85;;;;;;;1.59;87.19;99035.55;1719914;82;21067;-70
2022/02/07 06:10:24;;;;;;;7.42;2.67;;;;;;;1.59;87.18;99038.18;1720207;83;21466;-70
2022/02/07 06:12:51;;;;;;;3.72;1.67;;;;;;;1.57;87.15;99042.77;1719596;83;21023;-70
2022/02/07 06:15:18;;;;;;;3.20;1.22;;;;;;;1.58;87.18;99054.94;1719662;83;21096;-70
2022/02/07 06:17:47;;;;;;;4.20;1.30;;;;;;;1.59;87.18;99063.14;1719885;82;20991;-70
2022/02/07 06:20:12;;;;;;;2.85;1.82;;;;;;;1.59;87.19;99065.77;1740396;82;21485;-70
2022/02/07 06:22:38;;;;;;;12.15;3.15;;;;;;;1.58;87.18;99074.64;1749424;81;21091;-70
2022/02/07 06:25:05;;;;;;;17.25;5.55;;;;;;;1.58;87.19;99090.41;1749770;82;21554;-70
2022/02/07 06:27:31;;;;;;;5.45;1.87;;;;;;;1.57;87.18;99099.25;1749764;82;21006;-70
2022/02/07 06:29:57;;;;;;;3.70;1.80;;;;;;;1.57;87.18;99105.81;1748876;82;21483;-70
2022/02/07 06:32:23;;;;;;;4.08;1.80;;;;;;;1.58;87.17;99114.05;1749702;81;21043;-71
2022/02/07 06:34:49;;;;;;;1.80;1.00;;;;;;;1.59;87.21;99119.63;1747712;81;20829;-70
2022/02/07 06:37:15;;;;;;;4.45;2.10;;;;;;;1.59;87.19;99129.65;1749515;82;20995;-70
2022/02/07 06:39:41;;;;;;;7.70;2.02;;;;;;;1.59;87.19;99136.70;1749794;82;21178;-70
2022/02/07 06:42:07;;;;;;;6.60;3.62;;;;;;;1.60;87.20;99158.06;1747306;81;20979;-70
2022/02/07 06:44:34;;;;;;;10.00;3.00;;;;;;;1.60;87.20;99167.27;1719543;83;21090;-70
2022/02/07 06:47:00;;;;;;;8.75;2.90;;;;;;;1.57;87.19;99170.19;1719634;82;20999;-70
2022/02/07 06:49:26;;;;;;;2.90;1.17;;;;;;;1.51;87.20;99176.34;1716382;82;21055;-70
2022/02/07 06:51:52;;;;;;;4.80;1.27;;;;;;;1.47;87.21;99181.56;1718311;83;21139;-70
2022/02/07 06:54:18;;;;;;;3.98;1.82;;;;;;;1.38;87.19;99198.15;1718053;83;20984;-69
2022/02/07 06:56:45;;;;;;;3.65;1.50;;;;;;;1.32;87.17;99198.72;1718601;82;22156;-70
2022/02/07 06:59:16;;;;;;;2.12;0.72;;;;;;;1.32;87.18;99215.80;1718335;82;21054;-70
2022/02/07 07:01:39;;;;;;;5.80;1.42;;;;;;;1.33;87.20;99208.27;1717972;82;21030;-70
2022/02/07 07:04:05;;;;;;;3.62;0.95;;;;;;;1.35;87.20;99220.76;1725286;82;21117;-70
2022/02/07 07:06:31;;;;;;;7.75;3.00;;;;;;;1.37;87.20;99221.43;1693501;84;21063;-70
2022/02/07 07:08:58;;;;;;;3.20;1.80;;;;;;;1.40;87.21;99232.16;1702124;83;21069;-70
2022/02/07 07:11:27;;;;;;;2.30;1.27;;;;;;;1.43;87.23;99243.70;1703216;81;21006;-70
2022/02/07 07:13:56;;;;;;;2.47;1.12;;;;;;;1.44;87.23;99250.11;1719529;83;21003;-70
2022/02/07 07:18:50;;;;;;;2.87;1.35;;;;;;;1.46;87.22;99260.00;1720501;81;21074;-70
2022/02/07 07:21:16;;;;;;;3.33;1.92;;;;;;;1.50;87.25;99265.33;1712466;83;21002;-70
2022/02/07 07:23:43;;;;;;;16.80;6.62;;;;;;;1.53;87.26;99268.63;1695925;84;21066;-70
2022/02/07 07:26:09;;;;;;;26.70;11.80;;;;;;;1.56;87.25;99278.85;1736631;81;21472;-71
2022/02/07 07:28:37;;;;;;;23.00;10.82;;;;;;;1.57;87.26;99283.15;1739978;81;21526;-70
2022/02/07 07:31:05;;;;;;;8.50;4.12;;;;;;;1.57;87.26;99289.72;1756652;81;21014;-70
2022/02/07 07:33:32;;;;;;;4.28;2.10;;;;;;;1.57;87.25;99301.54;1760825;81;21489;-70
2022/02/07 07:35:59;;;;;;;8.43;2.62;;;;;;;1.56;87.25;99307.75;1761005;81;21482;-70
2022/02/07 07:38:25;;;;;;;15.38;5.25;;;;;;;1.58;87.25;99317.17;1759429;81;21004;-70
2022/02/07 07:40:51;;;;;;;12.73;5.15;;;;;;;1.60;87.24;99327.05;1752240;81;21580;-70
2022/02/07 07:43:17;;;;;;;57.23;22.42;;;;;;;1.62;87.22;99330.35;1742836;82;20983;-70
2022/02/07 07:45:54;;;;;;;13.90;4.00;;;;;;;1.63;87.21;99333.81;1724851;83;21426;-71
2022/02/07 07:48:23;;;;;;;14.53;4.45;;;;;;;1.63;87.20;99344.32;1724099;82;21023;-70
2022/02/07 07:50:52;;;;;;;6.78;2.52;;;;;;;1.69;87.21;99355.61;1729709;81;21672;-70
2022/02/07 07:53:40;;;;;;;7.05;2.30;;;;;;;1.68;87.17;99357.41;1750441;81;21127;-70
2022/02/07 08:03:52;;;;;;;14.93;5.33;;;;;;;1.73;87.10;99381.94;1727053;81;20919;-70
2022/02/07 08:06:21;;;;;;;10.23;3.45;;;;;;;1.76;87.09;99393.51;1706089;81;21441;-70
2022/02/07 08:11:13;;;;;;;11.93;5.37;;;;;;;1.87;87.08;99402.54;1757509;81;21041;-70
2022/02/07 08:13:41;;;;;;;14.43;4.97;;;;;;;1.90;87.05;99410.17;1689331;83;20975;-70
2022/02/07 08:16:06;;;;;;;7.90;2.80;;;;;;;1.94;87.05;99419.41;1719708;83;21528;-70
2022/02/07 08:18:32;;;;;;;12.30;6.00;;;;;;;1.95;87.00;99422.40;1719989;82;21768;-70
2022/02/07 08:20:59;;;;;;;9.48;3.90;;;;;;;1.99;87.00;99425.09;1719767;82;20979;-70
2022/02/07 08:23:25;;;;;;;8.48;3.87;;;;;;;2.02;86.96;99426.12;1719848;82;21094;-70
2022/02/07 08:25:52;;;;;;;8.08;3.27;;;;;;;2.05;86.93;99435.05;1756114;81;21014;-70
2022/02/07 08:28:19;;;;;;;9.23;2.98;;;;;;;2.11;86.90;99427.91;1757832;81;21328;-70
2022/02/07 08:30:45;;;;;;;8.25;3.52;;;;;;;2.14;86.86;99444.75;1747967;80;21527;-70
2022/02/07 08:33:11;;;;;;;12.70;3.22;;;;;;;2.19;86.84;99449.08;1718162;83;21487;-70
2022/02/07 08:35:37;;;;;;;8.38;3.55;;;;;;;2.23;86.80;99457.52;1718457;83;21559;-70
2022/02/07 08:38:03;;;;;;;19.42;5.92;;;;;;;2.25;86.75;99456.41;1718136;83;21019;-70
2022/02/07 08:40:29;;;;;;;19.50;4.97;;;;;;;2.28;86.66;99456.16;1718244;83;21062;-70
2022/02/07 08:42:56;;;;;;;8.00;3.60;;;;;;;2.31;86.60;99469.50;1718243;83;21150;-70
2022/02/07 08:45:23;;;;;;;11.22;4.28;;;;;;;2.34;86.53;99475.31;1718040;83;21083;-70
2022/02/07 08:47:49;;;;;;;10.78;3.90;;;;;;;2.36;86.45;99478.62;1718260;83;21521;-70
2022/02/07 08:50:16;;;;;;;9.53;3.52;;;;;;;2.39;86.39;99495.44;1718324;83;21059;-70
2022/02/07 08:52:46;;;;;;;15.28;4.30;;;;;;;2.40;86.31;99493.16;1718313;83;21071;-70
2022/02/07 08:55:14;;;;;;;10.50;3.40;;;;;;;2.41;86.23;99494.83;1714037;82;21924;-70
2022/02/07 08:57:43;;;;;;;11.08;2.85;;;;;;;2.43;86.16;99503.39;1737133;80;21050;-70
2022/02/07 09:00:22;;;;;;;9.78;2.42;;;;;;;2.42;86.07;99504.39;1749721;81;20990;-70
2022/02/07 09:08:03;;;;;;;13.22;4.12;;;;;;;2.49;85.84;99512.06;1748754;81;21133;-70
2022/02/07 09:10:17;;;;;;;14.78;4.10;;;;;;;2.50;85.77;99516.81;1720974;83;21027;-71
2022/02/07 09:12:46;;;;;;;15.65;7.03;;;;;;;2.51;85.71;99523.27;1698014;83;21586;-70
2022/02/07 09:15:30;;;;;;;16.90;6.35;;;;;;;2.50;85.61;99529.49;1694397;83;21043;-70
2022/02/07 09:17:45;;;;;;;10.00;3.67;;;;;;;2.51;85.55;99527.70;1754684;81;20990;-70
2022/02/07 09:20:11;;;;;;;21.30;7.78;;;;;;;2.52;85.48;99534.63;1757474;81;21121;-70
2022/02/07 09:22:37;;;;;;;15.90;3.20;;;;;;;2.53;85.42;99547.62;1734251;81;21590;-70
2022/02/07 09:25:04;;;;;;;5.72;2.27;;;;;;;2.51;85.34;99552.22;1723866;82;21043;-70
2022/02/07 09:27:30;;;;;;;8.83;2.42;;;;;;;2.49;85.27;99559.91;1747548;82;21554;-70
2022/02/07 09:29:56;;;;;;;17.65;6.75;;;;;;;2.42;85.21;99567.53;1749356;82;21055;-70
2022/02/07 09:32:22;;;;;;;14.13;4.08;;;;;;;2.41;85.17;99573.75;1749625;82;21182;-70
2022/02/07 09:34:48;;;;;;;16.17;6.50;;;;;;;2.44;85.13;99583.16;1745497;82;21038;-70
2022/02/07 09:37:14;;;;;;;13.28;5.55;;;;;;;2.41;85.08;99581.65;1736500;82;21051;-71
2022/02/07 09:39:40;;;;;;;15.72;6.22;;;;;;;2.44;85.03;99584.00;1719742;82;21008;-71
2022/02/07 09:42:07;;;;;;;15.28;5.05;;;;;;;2.50;85.00;99585.23;1747842;81;20994;-70
2022/02/07 09:44:43;;;;;;;9.95;3.17;;;;;;;2.60;84.96;99585.25;1757659;81;21047;-70
2022/02/07 09:47:01;;;;;;;9.75;2.60;;;;;;;2.67;84.92;99590.30;1712395;83;21566;-71
2022/02/07 09:49:27;;;;;;;10.38;4.15;;;;;;;2.69;84.89;99594.45;1719895;82;21676;-71
2022/02/07 09:51:53;;;;;;;13.62;5.42;;;;;;;2.73;84.86;99600.27;1719465;83;20995;-71
2022/02/07 09:54:21;;;;;;;20.17;7.47;;;;;;;2.76;84.82;99607.40;1748451;81;21014;-71
2022/02/07 09:56:48;;;;;;;24.30;7.85;;;;;;;2.83;84.80;99610.30;1757634;81;21185;-71
2022/02/07 09:59:15;;;;;;;10.03;4.17;;;;;;;2.88;84.77;99610.72;1757535;81;21006;-70
2022/02/07 10:01:47;;;;;;;14.47;6.25;;;;;;;2.95;84.74;99615.77;1757332;81;21518;-70
2022/02/07 10:04:25;;;;;;;10.63;4.60;;;;;;;3.02;84.69;99618.19;1757613;81;21001;-70
2022/02/07 10:07:40;;;;;;;9.30;3.33;;;;;;;3.07;84.68;99617.26;1726030;81;21269;-71
2022/02/07 10:12:04;;;;;;;11.80;4.92;;;;;;;3.08;84.57;99622.88;1722039;81;20985;-70
2022/02/07 10:14:31;;;;;;;33.75;11.78;;;;;;;2.94;84.49;99627.27;1728371;80;20994;-70
2022/02/07 10:17:06;;;;;;;19.85;6.62;;;;;;;2.79;84.46;99643.97;1691401;82;21049;-70
2022/02/07 10:36:07;;;;;;;30.88;13.38;;;;;;;2.92;84.33;99667.41;1714454;81;21313;-70
2022/02/07 10:38:19;;;;;;;52.95;24.92;;;;;;;2.97;84.29;99691.50;1672826;83;21062;-70
2022/02/07 10:40:42;;;;;;;34.25;15.70;;;;;;;3.03;84.26;99684.86;1696834;84;21013;-70
2022/02/07 10:46:08;;;;;;;13.03;5.58;;;;;;;3.14;84.26;99682.89;1671914;83;21087;-71
2022/02/07 10:48:43;;;;;;;20.20;7.90;;;;;;;3.18;84.22;99684.28;1727583;80;22169;-70
2022/02/07 10:51:18;;;;;;;18.95;8.08;;;;;;;3.23;84.15;99687.34;1729313;81;20998;-71
2022/02/07 10:53:56;;;;;;;20.08;7.58;;;;;;;3.33;84.14;99686.83;1726901;83;21113;-70
2022/02/07 10:56:38;;;;;;;6.53;2.08;;;;;;;3.41;84.08;99682.98;1727742;81;21006;-70
2022/02/07 10:59:10;;;;;;;7.17;2.25;;;;;;;3.49;84.04;99687.06;1727388;81;20987;-70
2022/02/07 11:02:22;;;;;;;11.55;4.03;;;;;;;3.50;83.94;99683.47;1726324;83;21807;-70
2022/02/07 11:04:33;;;;;;;6.17;1.60;;;;;;;3.55;83.89;99684.36;1729098;81;21003;-71
2022/02/07 23:03:16;;;;;;;20.82;4.92;;;;;;;2.16;75.51;100899.98;1704229;81;21064;-72
2022/02/07 23:05:45;;;;;;;18.55;4.50;;;;;;;2.19;75.53;100906.35;1703961;84;21052;-73
2022/02/07 23:13:41;;;;;;;13.45;3.62;;;;;;;2.18;75.60;100916.50;1687255;85;20995;-72
2022/02/07 23:35:09;;;;;;;10.80;3.47;;;;;;;2.17;75.73;100951.67;1689768;84;21007;-72
2022/02/07 23:37:39;;;;;;;15.80;5.08;;;;;;;2.23;75.73;100953.88;1687599;84;21070;-72
2022/02/07 23:40:03;;;;;;;16.75;3.67;;;;;;;2.25;75.73;100957.23;1686990;84;21017;-72
2022/02/07 23:44:59;;;;;;;23.02;4.47;;;;;;;2.29;75.76;100958.72;1689896;84;21067;-72
2022/02/07 23:47:35;;;;;;;23.30;5.45;;;;;;;2.30;75.79;100963.05;1689338;84;21903;-72
2022/02/07 23:57:45;;;;;;;25.20;6.58;;;;;;;2.36;75.83;100977.09;1658141;85;21037;-73
